Time;durP1;ratioP1;P1;durP2;ratioP2;P2;SDS_P1;SDS_P2;PMS_P1;PMS_P2;Temp;Humidity;BMP_temperature;BMP_pressure;BME280_temperature;BME280_humidity;BME280_pressure;Samples;Min_cycle;Max_cycle;Signal;HPM_P1;HPM_P2
2023/06/09 02:02:04;;;;;;;10.30;5.65;;;;;;;;;;4416802;27;20395;-78
2023/06/09 02:04:31;;;;;;;6.10;5.07;;;;;;;;;;4258675;33;20042;-78
2023/06/09 02:06:58;;;;;;;11.12;5.97;;;;;;;;;;4262026;33;20533;-79
2023/06/09 02:09:25;;;;;;;6.95;5.97;;;;;;;;;;4264577;33;20817;-77
2023/06/09 02:11:51;;;;;;;6.22;5.18;;;;;;;;;;4251078;33;20460;-77
2023/06/09 02:14:18;;;;;;;8.10;5.72;;;;;;;;;;4249609;33;20089;-78
2023/06/09 02:16:47;;;;;;;15.32;5.47;;;;;;;;;;4250965;33;20031;-79
2023/06/09 02:19:14;;;;;;;6.15;5.55;;;;;;;;;;4251246;33;20051;-78
2023/06/09 02:21:40;;;;;;;8.50;4.90;;;;;;;;;;4254125;33;20076;-79
2023/06/09 02:24:06;;;;;;;7.93;5.40;;;;;;;;;;4253865;33;20056;-78
2023/06/09 02:26:34;;;;;;;12.55;5.65;;;;;;;;;;4253783;33;20068;-78
2023/06/09 02:29:01;;;;;;;13.02;5.57;;;;;;;;;;4251625;33;20492;-78
2023/06/09 02:31:30;;;;;;;6.20;5.55;;;;;;;;;;4252350;33;20026;-79
2023/06/09 02:33:56;;;;;;;7.75;5.62;;;;;;;;;;4253428;33;20054;-79
2023/06/09 02:36:23;;;;;;;9.35;5.87;;;;;;;;;;4265017;33;20056;-79
2023/06/09 02:38:50;;;;;;;5.82;4.85;;;;;;;;;;4265163;33;20071;-79
2023/06/09 02:41:16;;;;;;;6.50;5.07;;;;;;;;;;4266446;33;20037;-79
2023/06/09 02:43:42;;;;;;;8.80;5.28;;;;;;;;;;4268528;33;20050;-78
2023/06/09 02:46:09;;;;;;;12.25;5.57;;;;;;;;;;4269930;33;20038;-77
2023/06/09 02:48:36;;;;;;;6.57;5.40;;;;;;;;;;4269944;33;20046;-79
2023/06/09 02:51:02;;;;;;;10.40;5.30;;;;;;;;;;4267865;33;20063;-79
2023/06/09 02:53:29;;;;;;;11.40;5.50;;;;;;;;;;4269789;33;20057;-79
2023/06/09 02:55:55;;;;;;;7.32;5.10;;;;;;;;;;4266240;33;20050;-79
2023/06/09 02:58:24;;;;;;;9.63;4.97;;;;;;;;;;4267173;33;20075;-79
2023/06/09 03:00:50;;;;;;;8.88;5.70;;;;;;;;;;4266399;33;20053;-78
2023/06/09 03:03:17;;;;;;;10.15;6.00;;;;;;;;;;4266224;33;20075;-79
2023/06/09 03:05:44;;;;;;;8.40;6.18;;;;;;;;;;4267403;33;20060;-79
2023/06/09 03:08:10;;;;;;;10.35;5.70;;;;;;;;;;4267118;33;20049;-79
2023/06/09 03:10:37;;;;;;;5.53;5.03;;;;;;;;;;4267410;33;20038;-79
2023/06/09 03:13:03;;;;;;;6.95;5.20;;;;;;;;;;4264373;33;20046;-79
2023/06/09 03:15:31;;;;;;;11.10;5.12;;;;;;;;;;4267035;33;20827;-79
2023/06/09 03:17:57;;;;;;;6.57;4.85;;;;;;;;;;4267586;33;20050;-79
2023/06/09 03:20:24;;;;;;;8.65;4.57;;;;;;;;;;4266939;33;20029;-79
2023/06/09 03:22:54;;;;;;;6.95;4.93;;;;;;;;;;4267152;33;20087;-79
2023/06/09 03:25:21;;;;;;;6.05;4.93;;;;;;;;;;4266063;33;20042;-79
2023/06/09 03:27:47;;;;;;;7.57;5.35;;;;;;;;;;4279363;33;20063;-80
2023/06/09 03:30:14;;;;;;;9.40;5.05;;;;;;;;;;4280594;33;20111;-80
2023/06/09 03:32:42;;;;;;;9.98;4.70;;;;;;;;;;4271086;33;20392;-79
2023/06/09 03:35:08;;;;;;;5.35;4.20;;;;;;;;;;4268176;33;20111;-80
2023/06/09 03:37:35;;;;;;;9.48;4.93;;;;;;;;;;4269076;33;20471;-80
2023/06/09 03:40:03;;;;;;;6.05;4.32;;;;;;;;;;4269582;33;20071;-79
2023/06/09 03:42:35;;;;;;;9.82;4.80;;;;;;;;;;4267622;33;20357;-77
2023/06/09 03:45:02;;;;;;;5.65;4.47;;;;;;;;;;4280167;33;20067;-77
2023/06/09 03:47:29;;;;;;;4.35;3.95;;;;;;;;;;4280601;33;20050;-79
2023/06/09 03:49:55;;;;;;;8.18;4.05;;;;;;;;;;4281097;33;20190;-79
2023/06/09 03:52:21;;;;;;;6.75;4.45;;;;;;;;;;4266242;33;20424;-79
2023/06/09 03:54:48;;;;;;;6.37;4.25;;;;;;;;;;4265908;33;20069;-79
2023/06/09 03:57:15;;;;;;;6.57;4.47;;;;;;;;;;4266745;33;20077;-80
2023/06/09 03:59:41;;;;;;;6.15;3.75;;;;;;;;;;4263978;33;20210;-79
2023/06/09 04:02:14;;;;;;;8.18;4.80;;;;;;;;;;4266362;33;20456;-79
2023/06/09 04:04:40;;;;;;;10.25;4.57;;;;;;;;;;4266369;33;20038;-79
2023/06/09 04:07:07;;;;;;;7.20;4.60;;;;;;;;;;4250770;33;20223;-79
2023/06/09 04:09:35;;;;;;;9.55;4.87;;;;;;;;;;4250787;33;20038;-79
2023/06/09 04:12:02;;;;;;;14.95;4.50;;;;;;;;;;4251906;33;20059;-79
2023/06/09 04:14:28;;;;;;;12.68;5.45;;;;;;;;;;4252455;33;20079;-80
2023/06/09 04:16:55;;;;;;;9.60;5.20;;;;;;;;;;4251724;33;20096;-80
2023/06/09 04:19:22;;;;;;;9.02;6.55;;;;;;;;;;4251916;33;20068;-80
2023/06/09 04:21:48;;;;;;;8.95;5.90;;;;;;;;;;4249119;33;20498;-80
2023/06/09 04:24:14;;;;;;;10.80;5.62;;;;;;;;;;4258578;33;20068;-80
2023/06/09 04:26:44;;;;;;;8.73;5.60;;;;;;;;;;4266289;33;20373;-80
2023/06/09 04:29:10;;;;;;;9.27;6.22;;;;;;;;;;4265848;33;20053;-80
2023/06/09 04:31:37;;;;;;;9.50;6.97;;;;;;;;;;4266016;33;20053;-79
2023/06/09 04:34:10;;;;;;;7.32;5.95;;;;;;;;;;4263961;33;20049;-80
2023/06/09 04:36:38;;;;;;;9.05;5.75;;;;;;;;;;4265531;33;20071;-80
2023/06/09 04:39:07;;;;;;;5.90;5.18;;;;;;;;;;4266518;33;20079;-80
2023/06/09 04:41:34;;;;;;;5.90;4.70;;;;;;;;;;4267846;33;20153;-81
2023/06/09 04:44:04;;;;;;;6.32;4.25;;;;;;;;;;4266252;33;20072;-79
2023/06/09 04:46:31;;;;;;;7.93;4.40;;;;;;;;;;4268010;33;20046;-79
2023/06/09 04:49:00;;;;;;;7.82;4.37;;;;;;;;;;4282216;33;20107;-79
2023/06/09 04:51:26;;;;;;;6.93;4.75;;;;;;;;;;4282506;33;20376;-79
2023/06/09 04:53:54;;;;;;;7.20;4.90;;;;;;;;;;4280506;33;20482;-78
2023/06/09 04:56:20;;;;;;;6.32;5.00;;;;;;;;;;4271189;33;20061;-79
2023/06/09 04:58:47;;;;;;;9.55;4.45;;;;;;;;;;4278759;33;20037;-79
2023/06/09 05:01:14;;;;;;;11.00;4.30;;;;;;;;;;4282221;33;20041;-79
2023/06/09 05:03:41;;;;;;;6.60;4.35;;;;;;;;;;4276891;33;20145;-78
2023/06/09 05:06:07;;;;;;;6.70;5.05;;;;;;;;;;4282793;33;20146;-79
2023/06/09 05:08:33;;;;;;;12.77;4.72;;;;;;;;;;4278958;33;20378;-78
2023/06/09 05:11:00;;;;;;;9.38;5.28;;;;;;;;;;4279274;33;20042;-79
2023/06/09 05:13:26;;;;;;;11.12;5.35;;;;;;;;;;4263167;33;20071;-79
2023/06/09 05:15:53;;;;;;;10.60;4.70;;;;;;;;;;4262515;33;20431;-78
2023/06/09 05:18:19;;;;;;;8.40;4.87;;;;;;;;;;4264917;33;20042;-80
2023/06/09 05:20:46;;;;;;;11.90;5.00;;;;;;;;;;4264564;33;20057;-80
2023/06/09 05:23:19;;;;;;;12.77;5.10;;;;;;;;;;4264368;33;20071;-79
2023/06/09 05:25:45;;;;;;;6.50;4.62;;;;;;;;;;4260901;33;20360;-78
2023/06/09 05:28:12;;;;;;;7.18;4.47;;;;;;;;;;4264468;33;20110;-78
2023/06/09 05:30:40;;;;;;;6.55;4.40;;;;;;;;;;4267433;33;20062;-79
2023/06/09 05:33:07;;;;;;;10.80;4.43;;;;;;;;;;4248376;33;20038;-79
2023/06/09 05:35:33;;;;;;;6.47;4.22;;;;;;;;;;4243543;33;20073;-79
2023/06/09 05:38:00;;;;;;;7.22;4.25;;;;;;;;;;4237638;33;20045;-79
2023/06/09 05:40:27;;;;;;;3.83;3.53;;;;;;;;;;4236079;33;20051;-79
2023/06/09 05:42:53;;;;;;;5.90;4.47;;;;;;;;;;4235982;33;20046;-79
2023/06/09 05:45:19;;;;;;;4.90;3.70;;;;;;;;;;4235555;33;20457;-78
2023/06/09 05:47:45;;;;;;;6.12;3.50;;;;;;;;;;4234168;33;20022;-79
2023/06/09 05:50:12;;;;;;;4.32;3.85;;;;;;;;;;4248973;33;20050;-79
2023/06/09 05:52:38;;;;;;;5.45;4.20;;;;;;;;;;4250748;33;20077;-79
2023/06/09 05:55:05;;;;;;;9.20;3.78;;;;;;;;;;4238591;33;20105;-79
2023/06/09 05:57:32;;;;;;;11.90;3.83;;;;;;;;;;4238013;33;20057;-79
2023/06/09 06:00:09;;;;;;;9.63;4.10;;;;;;;;;;4235959;33;20093;-78
2023/06/09 06:02:38;;;;;;;19.40;4.18;;;;;;;;;;4235478;33;20089;-78
2023/06/09 06:05:06;;;;;;;5.43;3.72;;;;;;;;;;4243658;33;20094;-78
2023/06/09 06:07:35;;;;;;;7.97;3.33;;;;;;;;;;4242034;33;20042;-78
2023/06/09 06:10:03;;;;;;;10.50;3.50;;;;;;;;;;4225069;34;20059;-77
2023/06/09 06:12:30;;;;;;;3.53;3.22;;;;;;;;;;4225529;33;20514;-77
2023/06/09 06:14:56;;;;;;;8.52;3.83;;;;;;;;;;4225155;33;20057;-78
2023/06/09 06:17:22;;;;;;;8.48;2.78;;;;;;;;;;4224203;34;20023;-80
2023/06/09 06:19:52;;;;;;;7.20;3.00;;;;;;;;;;4221933;33;20085;-83
2023/06/09 06:22:18;;;;;;;9.75;2.90;;;;;;;;;;4223945;34;20075;-76
2023/06/09 06:24:44;;;;;;;4.85;2.95;;;;;;;;;;4224794;34;20492;-77
2023/06/09 06:27:11;;;;;;;4.12;2.97;;;;;;;;;;4223958;34;20034;-80
2023/06/09 06:29:38;;;;;;;13.55;3.03;;;;;;;;;;4238308;33;20080;-78
2023/06/09 06:32:05;;;;;;;4.05;2.55;;;;;;;;;;4236398;33;20049;-81
2023/06/09 06:34:34;;;;;;;5.60;3.03;;;;;;;;;;4221164;34;20054;-81
2023/06/09 06:37:00;;;;;;;2.85;2.65;;;;;;;;;;4224799;33;20038;-83
2023/06/09 06:39:26;;;;;;;8.35;3.83;;;;;;;;;;4224508;33;20068;-82
2023/06/09 06:41:52;;;;;;;4.72;2.75;;;;;;;;;;4222273;33;20158;-82
2023/06/09 06:44:19;;;;;;;7.60;2.53;;;;;;;;;;4224338;33;20059;-87
2023/06/09 06:46:45;;;;;;;7.72;3.17;;;;;;;;;;4227568;33;20071;-84
2023/06/09 06:49:11;;;;;;;4.55;2.75;;;;;;;;;;4238195;33;20047;-83
2023/06/09 06:51:37;;;;;;;3.70;2.20;;;;;;;;;;4236367;33;20162;-77
2023/06/09 06:54:04;;;;;;;6.10;2.80;;;;;;;;;;4238614;33;20084;-87
2023/06/09 06:56:30;;;;;;;5.80;2.33;;;;;;;;;;4238822;33;20045;-86
2023/06/09 06:58:56;;;;;;;5.43;2.92;;;;;;;;;;4238602;33;20080;-84
2023/06/09 07:01:23;;;;;;;4.65;3.12;;;;;;;;;;4238868;33;20058;-83
2023/06/09 07:03:50;;;;;;;3.92;3.28;;;;;;;;;;4221944;33;20038;-78
2023/06/09 07:06:17;;;;;;;3.50;3.17;;;;;;;;;;4246360;33;20098;-82
2023/06/09 07:08:43;;;;;;;13.38;3.70;;;;;;;;;;4263391;33;20505;-86
2023/06/09 07:11:09;;;;;;;4.05;2.97;;;;;;;;;;4255971;33;20050;-84
2023/06/09 07:13:36;;;;;;;3.65;3.30;;;;;;;;;;4246129;33;20046;-85
2023/06/09 07:16:02;;;;;;;16.20;3.15;;;;;;;;;;4236809;33;20207;-83
2023/06/09 07:18:29;;;;;;;7.82;3.05;;;;;;;;;;4238725;33;20109;-82
2023/06/09 07:20:55;;;;;;;3.85;2.50;;;;;;;;;;4237097;33;20046;-82
2023/06/09 07:23:21;;;;;;;2.92;2.67;;;;;;;;;;4207852;34;20061;-80
2023/06/09 07:25:47;;;;;;;7.62;3.25;;;;;;;;;;4201050;34;20043;-83
2023/06/09 07:28:14;;;;;;;2.97;2.60;;;;;;;;;;4187784;34;20052;-77
2023/06/09 07:30:40;;;;;;;3.08;2.87;;;;;;;;;;4191625;34;20081;-83
2023/06/09 07:33:08;;;;;;;8.02;3.42;;;;;;;;;;4189419;34;20052;-73
2023/06/09 07:35:35;;;;;;;4.60;3.20;;;;;;;;;;4160569;34;20052;-84
2023/06/09 07:38:01;;;;;;;3.20;2.85;;;;;;;;;;4168100;34;20047;-80
2023/06/09 07:40:27;;;;;;;3.15;2.65;;;;;;;;;;4168395;34;20121;-79
2023/06/09 07:42:53;;;;;;;9.68;2.80;;;;;;;;;;4172999;34;20052;-86
2023/06/09 07:45:19;;;;;;;2.90;2.70;;;;;;;;;;4180597;34;20088;-78
2023/06/09 07:47:46;;;;;;;3.37;2.55;;;;;;;;;;4192210;34;20077;-80
2023/06/09 07:50:12;;;;;;;3.03;2.78;;;;;;;;;;4173841;34;20063;-78
2023/06/09 07:52:39;;;;;;;4.75;2.92;;;;;;;;;;4171291;34;20044;-82
2023/06/09 07:55:09;;;;;;;8.80;2.70;;;;;;;;;;4202740;34;20063;-82
2023/06/09 07:57:36;;;;;;;3.50;2.85;;;;;;;;;;4207836;34;20074;-82
2023/06/09 08:00:02;;;;;;;2.72;2.28;;;;;;;;;;4209385;34;20044;-80
2023/06/09 08:02:41;;;;;;;6.35;2.80;;;;;;;;;;4207968;34;20098;-82
2023/06/09 08:05:08;;;;;;;2.60;2.35;;;;;;;;;;4202496;34;20911;-84
2023/06/09 08:07:34;;;;;;;5.93;2.60;;;;;;;;;;4208826;34;20072;-87
2023/06/09 08:10:00;;;;;;;12.02;2.37;;;;;;;;;;4209627;34;20040;-86
2023/06/09 08:12:27;;;;;;;2.75;2.37;;;;;;;;;;4209246;34;20089;-84
2023/06/09 08:14:53;;;;;;;2.50;2.30;;;;;;;;;;4196095;34;20043;-81
2023/06/09 08:17:19;;;;;;;5.22;2.17;;;;;;;;;;4199448;34;20109;-84
2023/06/09 08:19:46;;;;;;;7.43;2.17;;;;;;;;;;4188201;34;20065;-80
2023/06/09 08:22:12;;;;;;;2.50;2.35;;;;;;;;;;4195217;34;20078;-77
2023/06/09 08:24:38;;;;;;;4.68;2.70;;;;;;;;;;4195400;34;20053;-80
2023/06/09 08:27:05;;;;;;;2.87;2.42;;;;;;;;;;4196905;34;20051;-78
2023/06/09 08:29:31;;;;;;;7.78;2.92;;;;;;;;;;4200066;34;20051;-79
2023/06/09 08:31:57;;;;;;;2.70;2.08;;;;;;;;;;4212633;34;20055;-79
2023/06/09 08:34:23;;;;;;;4.35;2.75;;;;;;;;;;4207215;34;20069;-83
2023/06/09 08:36:50;;;;;;;3.65;2.87;;;;;;;;;;4218574;33;20107;-80
2023/06/09 08:39:16;;;;;;;8.52;2.60;;;;;;;;;;4225637;33;20102;-79
2023/06/09 08:41:42;;;;;;;4.62;2.75;;;;;;;;;;4239086;33;20054;-78
2023/06/09 08:44:08;;;;;;;2.83;2.60;;;;;;;;;;4226840;33;20072;-79
2023/06/09 08:46:38;;;;;;;6.25;3.05;;;;;;;;;;4224812;33;20065;-81
2023/06/09 08:49:04;;;;;;;5.37;3.10;;;;;;;;;;4224443;33;20068;-77
2023/06/09 08:51:31;;;;;;;8.30;2.65;;;;;;;;;;4222713;33;20061;-77
2023/06/09 08:53:58;;;;;;;5.72;4.12;;;;;;;;;;4221160;34;20280;-78
2023/06/09 08:56:25;;;;;;;8.10;3.80;;;;;;;;;;4222910;34;20065;-79
2023/06/09 08:58:57;;;;;;;6.93;3.22;;;;;;;;;;4224823;33;20046;-80
2023/06/09 09:01:23;;;;;;;6.05;3.90;;;;;;;;;;4219027;33;20103;-77
2023/06/09 09:03:50;;;;;;;5.50;2.87;;;;;;;;;;4220169;34;20078;-80
2023/06/09 09:06:16;;;;;;;14.27;3.17;;;;;;;;;;4219922;34;20042;-83
2023/06/09 09:08:43;;;;;;;7.53;2.90;;;;;;;;;;4220550;34;20424;-81
2023/06/09 09:11:10;;;;;;;5.20;2.35;;;;;;;;;;4203628;34;20059;-79
2023/06/09 09:13:37;;;;;;;3.75;2.30;;;;;;;;;;4201929;34;20056;-78
2023/06/09 09:16:04;;;;;;;2.90;2.53;;;;;;;;;;4186587;34;20123;-79
2023/06/09 09:18:31;;;;;;;6.43;2.55;;;;;;;;;;4186754;34;20037;-79
2023/06/09 09:20:58;;;;;;;11.77;2.70;;;;;;;;;;4183582;34;20370;-80
2023/06/09 09:23:31;;;;;;;3.67;2.83;;;;;;;;;;4183479;34;20095;-78
2023/06/09 09:25:59;;;;;;;7.32;3.03;;;;;;;;;;4181149;34;20403;-82
2023/06/09 09:28:25;;;;;;;2.83;2.53;;;;;;;;;;4208810;34;20031;-86
2023/06/09 09:30:54;;;;;;;9.77;2.45;;;;;;;;;;4212188;34;20051;-80
2023/06/09 09:33:24;;;;;;;2.80;2.60;;;;;;;;;;4212823;34;20034;-80
2023/06/09 09:35:51;;;;;;;6.37;2.30;;;;;;;;;;4206410;34;20381;-80
2023/06/09 09:38:20;;;;;;;6.03;2.42;;;;;;;;;;4211160;34;20040;-82
2023/06/09 09:40:48;;;;;;;3.35;2.80;;;;;;;;;;4211671;34;20092;-78
2023/06/09 09:43:15;;;;;;;3.72;2.55;;;;;;;;;;4212632;34;20053;-81
2023/06/09 09:45:48;;;;;;;4.05;2.40;;;;;;;;;;4213043;34;20072;-79
2023/06/09 09:48:15;;;;;;;3.85;3.17;;;;;;;;;;4222793;33;20060;-78
2023/06/09 09:50:42;;;;;;;4.87;2.40;;;;;;;;;;4239901;33;20467;-78
2023/06/09 09:53:08;;;;;;;3.33;2.60;;;;;;;;;;4229473;33;20425;-78
2023/06/09 09:55:45;;;;;;;3.60;2.47;;;;;;;;;;4233566;33;20524;-78
2023/06/09 09:58:12;;;;;;;8.30;2.65;;;;;;;;;;4236255;33;20048;-79
2023/06/09 10:00:40;;;;;;;9.77;3.08;;;;;;;;;;4238378;33;20162;-80
2023/06/09 10:03:09;;;;;;;7.80;2.67;;;;;;;;;;4246252;33;20079;-79
2023/06/09 10:05:39;;;;;;;7.43;3.15;;;;;;;;;;4244498;33;20078;-79
2023/06/09 10:08:05;;;;;;;4.85;2.25;;;;;;;;;;4241069;33;20977;-79
2023/06/09 10:10:32;;;;;;;8.82;2.90;;;;;;;;;;4236694;33;20054;-80
2023/06/09 10:13:00;;;;;;;9.55;2.50;;;;;;;;;;4237372;33;20078;-82
2023/06/09 10:15:26;;;;;;;4.45;2.60;;;;;;;;;;4235872;33;20388;-78
2023/06/09 10:17:53;;;;;;;2.42;2.05;;;;;;;;;;4238186;33;20062;-80
2023/06/09 10:20:20;;;;;;;3.80;2.55;;;;;;;;;;4208013;34;20550;-80
2023/06/09 10:22:46;;;;;;;6.25;2.85;;;;;;;;;;4208069;34;20061;-79
2023/06/09 10:25:13;;;;;;;4.07;3.00;;;;;;;;;;4210859;34;20106;-81
2023/06/09 10:27:43;;;;;;;3.78;2.58;;;;;;;;;;4230559;33;20170;-79
2023/06/09 10:30:10;;;;;;;12.07;2.95;;;;;;;;;;4235140;33;20076;-79
2023/06/09 10:32:46;;;;;;;4.20;3.03;;;;;;;;;;4231581;33;20471;-80
2023/06/09 10:35:14;;;;;;;2.85;2.28;;;;;;;;;;4233060;33;20073;-80
2023/06/09 10:37:41;;;;;;;5.90;2.25;;;;;;;;;;4233753;33;20042;-78
2023/06/09 10:40:16;;;;;;;3.92;2.67;;;;;;;;;;4238444;33;20403;-79
2023/06/09 10:42:54;;;;;;;8.23;2.60;;;;;;;;;;4238517;33;20038;-80
2023/06/09 10:45:21;;;;;;;4.50;2.40;;;;;;;;;;4237775;33;20051;-78
2023/06/09 10:47:48;;;;;;;2.72;2.53;;;;;;;;;;4239222;33;20080;-80
2023/06/09 10:50:23;;;;;;;2.60;2.35;;;;;;;;;;4240886;33;20061;-83
2023/06/09 10:52:53;;;;;;;8.48;2.50;;;;;;;;;;4238719;33;20463;-85
2023/06/09 10:55:21;;;;;;;6.32;2.70;;;;;;;;;;4236729;33;20042;-78
2023/06/09 10:57:47;;;;;;;6.62;2.37;;;;;;;;;;4254686;33;20844;-83
2023/06/09 11:03:19;;;;;;;3.00;2.75;;;;;;;;;;4259117;33;20071;-76
2023/06/09 11:05:57;;;;;;;7.03;2.25;;;;;;;;;;4269193;33;20459;-81
2023/06/09 11:08:23;;;;;;;2.72;2.53;;;;;;;;;;4269134;33;20068;-81
2023/06/09 11:10:49;;;;;;;8.68;2.67;;;;;;;;;;4269075;33;20076;-83
2023/06/09 11:13:35;;;;;;;2.75;2.22;;;;;;;;;;4268656;33;20089;-78
2023/06/09 11:16:02;;;;;;;4.12;2.55;;;;;;;;;;4269513;33;20387;-81
2023/06/09 11:18:29;;;;;;;6.32;2.28;;;;;;;;;;4265474;33;20084;-78
2023/06/09 11:21:11;;;;;;;7.45;2.62;;;;;;;;;;4270175;33;20104;-78
2023/06/09 11:23:54;;;;;;;5.45;2.20;;;;;;;;;;4266335;33;20451;-80
2023/06/09 11:26:22;;;;;;;3.10;2.80;;;;;;;;;;4268041;33;20076;-78
2023/06/09 11:28:48;;;;;;;5.93;2.37;;;;;;;;;;4264874;33;20067;-79
2023/06/09 11:31:15;;;;;;;2.90;2.55;;;;;;;;;;4269085;33;20096;-80
2023/06/09 11:33:45;;;;;;;5.05;2.60;;;;;;;;;;4275739;33;20041;-78
2023/06/09 11:36:12;;;;;;;;;;;;;;;;;;4264358;33;20046;-79
2023/06/09 11:38:38;;;;;;;6.37;2.70;;;;;;;;;;4263824;33;20343;-78
2023/06/09 11:41:07;;;;;;;3.40;3.10;;;;;;;;;;4266938;33;20126;-77
2023/06/09 11:43:34;;;;;;;6.70;3.08;;;;;;;;;;4266127;33;20026;-77
2023/06/09 11:46:01;;;;;;;4.62;2.45;;;;;;;;;;4262281;33;20088;-78
2023/06/09 11:48:27;;;;;;;5.85;3.10;;;;;;;;;;4264237;33;20037;-77
2023/06/09 11:50:54;;;;;;;3.25;2.92;;;;;;;;;;4267315;33;20042;-77
2023/06/09 11:53:21;;;;;;;5.22;2.55;;;;;;;;;;4263034;33;20072;-77
2023/06/09 11:55:56;;;;;;;3.10;2.50;;;;;;;;;;4265389;33;20061;-78
2023/06/09 11:58:22;;;;;;;3.50;2.60;;;;;;;;;;4265848;33;20034;-80
2023/06/09 12:00:49;;;;;;;3.03;2.60;;;;;;;;;;4264698;33;20054;-78
2023/06/09 12:03:18;;;;;;;3.72;3.42;;;;;;;;;;4267988;33;20485;-78
2023/06/09 12:05:48;;;;;;;8.93;2.83;;;;;;;;;;4266211;33;20107;-77
2023/06/09 12:08:21;;;;;;;3.05;2.28;;;;;;;;;;4268266;33;20041;-78
2023/06/09 12:10:48;;;;;;;2.83;2.58;;;;;;;;;;4263919;33;20050;-77
2023/06/09 12:13:14;;;;;;;6.20;5.43;;;;;;;;;;4265691;33;20033;-78
2023/06/09 12:15:45;;;;;;;3.10;2.70;;;;;;;;;;4264611;33;20079;-78
2023/06/09 12:18:12;;;;;;;3.17;2.87;;;;;;;;;;4260976;33;20030;-79
2023/06/09 12:20:41;;;;;;;4.78;2.95;;;;;;;;;;4264770;33;20060;-78
2023/06/09 12:23:12;;;;;;;3.75;3.12;;;;;;;;;;4266114;33;21007;-78
2023/06/09 12:25:41;;;;;;;2.70;2.50;;;;;;;;;;4259207;33;20106;-79
2023/06/09 12:28:26;;;;;;;5.50;2.85;;;;;;;;;;4243725;33;20054;-78
2023/06/09 12:31:06;;;;;;;7.95;2.78;;;;;;;;;;4244948;33;20827;-77
2023/06/09 12:33:35;;;;;;;2.92;2.60;;;;;;;;;;4243491;33;20103;-77
2023/06/09 12:36:06;;;;;;;3.10;2.83;;;;;;;;;;4244986;33;20053;-78
2023/06/09 12:38:43;;;;;;;4.50;2.65;;;;;;;;;;4250753;33;20038;-77
2023/06/09 12:41:11;;;;;;;4.60;2.45;;;;;;;;;;4244528;33;20062;-78
2023/06/09 12:43:43;;;;;;;5.45;2.90;;;;;;;;;;4232039;33;20276;-78
2023/06/09 12:46:10;;;;;;;2.95;2.67;;;;;;;;;;4249891;33;20076;-79
2023/06/09 12:49:02;;;;;;;3.08;2.87;;;;;;;;;;4252174;33;20120;-78
2023/06/09 12:51:32;;;;;;;6.60;3.55;;;;;;;;;;4220323;33;20080;-79
2023/06/09 12:53:59;;;;;;;3.45;2.80;;;;;;;;;;4223955;33;20459;-81
2023/06/09 12:56:26;;;;;;;5.82;2.67;;;;;;;;;;4222461;34;20503;-82
2023/06/09 12:58:55;;;;;;;9.43;2.65;;;;;;;;;;4227315;33;20080;-80
2023/06/09 13:01:22;;;;;;;3.20;2.90;;;;;;;;;;4237579;33;20038;-79
2023/06/09 13:03:49;;;;;;;4.65;2.80;;;;;;;;;;4236453;33;20050;-77
2023/06/09 13:06:16;;;;;;;7.20;2.45;;;;;;;;;;4237836;33;20122;-80
2023/06/09 13:08:42;;;;;;;6.05;2.85;;;;;;;;;;4246878;33;20047;-79
2023/06/09 13:11:10;;;;;;;6.43;2.53;;;;;;;;;;4227921;34;20092;-79
2023/06/09 13:13:42;;;;;;;4.20;2.28;;;;;;;;;;4228712;34;20058;-78
2023/06/09 13:16:09;;;;;;;4.00;2.85;;;;;;;;;;4227690;34;20046;-80
2023/06/09 13:18:35;;;;;;;6.05;2.33;;;;;;;;;;4228565;34;20406;-80
2023/06/09 13:21:02;;;;;;;2.85;2.62;;;;;;;;;;4224531;34;20074;-79
2023/06/09 13:23:28;;;;;;;5.45;2.80;;;;;;;;;;4249388;33;20080;-78
2023/06/09 13:25:54;;;;;;;5.03;2.87;;;;;;;;;;4237720;33;20054;-78
2023/06/09 13:28:20;;;;;;;8.13;3.17;;;;;;;;;;4198995;34;20132;-79
2023/06/09 13:30:47;;;;;;;7.32;3.22;;;;;;;;;;4205061;34;20170;-76
2023/06/09 13:33:13;;;;;;;7.70;3.03;;;;;;;;;;4215568;34;20051;-80
2023/06/09 13:35:41;;;;;;;10.82;6.50;;;;;;;;;;4213480;34;20038;-78
2023/06/09 13:38:08;;;;;;;16.00;3.20;;;;;;;;;;4218827;34;20043;-79
2023/06/09 13:40:36;;;;;;;5.85;2.92;;;;;;;;;;4219156;34;20054;-77
2023/06/09 13:43:02;;;;;;;11.48;3.20;;;;;;;;;;4219582;34;20093;-78
2023/06/09 13:45:29;;;;;;;3.40;3.10;;;;;;;;;;4220959;34;20413;-79
2023/06/09 13:48:00;;;;;;;3.95;2.97;;;;;;;;;;4221821;34;20069;-79
2023/06/09 13:50:27;;;;;;;5.22;3.72;;;;;;;;;;4217760;34;20069;-77
2023/06/09 13:52:53;;;;;;;3.40;3.00;;;;;;;;;;4206132;34;20114;-79
2023/06/09 13:55:19;;;;;;;6.20;3.30;;;;;;;;;;4179325;34;20048;-78
2023/06/09 13:57:46;;;;;;;11.95;5.10;;;;;;;;;;4180723;34;20060;-79
2023/06/09 14:00:12;;;;;;;10.38;5.20;;;;;;;;;;4177094;34;20601;-78
2023/06/09 14:02:39;;;;;;;4.55;3.60;;;;;;;;;;4179981;34;20089;-77
2023/06/09 14:05:10;;;;;;;7.05;3.45;;;;;;;;;;4204463;34;20116;-77
2023/06/09 14:07:36;;;;;;;6.50;4.03;;;;;;;;;;4192367;34;20427;-78
2023/06/09 14:10:03;;;;;;;10.50;4.30;;;;;;;;;;4193922;34;20054;-76
2023/06/09 14:12:30;;;;;;;12.02;4.45;;;;;;;;;;4189886;34;20039;-79
2023/06/09 14:14:56;;;;;;;6.25;3.28;;;;;;;;;;4196269;34;20085;-76
2023/06/09 14:17:22;;;;;;;8.38;4.00;;;;;;;;;;4175044;34;20044;-79
2023/06/09 14:19:48;;;;;;;9.80;2.83;;;;;;;;;;4171721;34;20063;-78
2023/06/09 14:22:14;;;;;;;6.03;3.65;;;;;;;;;;4187211;34;20086;-77
2023/06/09 14:24:41;;;;;;;11.45;3.80;;;;;;;;;;4198298;34;20472;-81
2023/06/09 14:27:07;;;;;;;6.43;3.53;;;;;;;;;;4159552;34;20056;-77
2023/06/09 14:29:35;;;;;;;12.98;4.80;;;;;;;;;;4158672;34;20067;-76
2023/06/09 14:32:02;;;;;;;13.52;5.72;;;;;;;;;;4164139;34;20043;-76
2023/06/09 14:34:29;;;;;;;6.78;4.20;;;;;;;;;;4168718;34;20085;-85
2023/06/09 14:36:55;;;;;;;11.50;4.82;;;;;;;;;;4168373;34;20057;-76
2023/06/09 14:39:22;;;;;;;10.15;5.60;;;;;;;;;;4177900;34;20067;-79
2023/06/09 14:41:48;;;;;;;11.43;5.93;;;;;;;;;;4184533;34;20065;-83
2023/06/09 14:44:16;;;;;;;10.90;5.20;;;;;;;;;;4169093;34;20082;-80
2023/06/09 14:46:42;;;;;;;9.65;5.30;;;;;;;;;;4168084;34;20036;-82
2023/06/09 14:49:09;;;;;;;8.27;5.12;;;;;;;;;;4158493;34;20180;-81
2023/06/09 14:51:35;;;;;;;11.55;5.22;;;;;;;;;;4156444;34;20052;-77
2023/06/09 14:54:02;;;;;;;7.45;5.20;;;;;;;;;;4167956;34;20088;-79
2023/06/09 14:56:28;;;;;;;7.70;5.20;;;;;;;;;;4156482;34;20098;-84
2023/06/09 14:58:54;;;;;;;8.07;4.70;;;;;;;;;;4166590;34;20056;-83
2023/06/09 15:01:20;;;;;;;7.20;5.47;;;;;;;;;;4170321;34;20048;-79
2023/06/09 15:03:46;;;;;;;13.95;5.53;;;;;;;;;;4204886;34;20060;-77
2023/06/09 15:06:12;;;;;;;9.80;6.07;;;;;;;;;;4212382;34;21565;-82
2023/06/09 15:08:39;;;;;;;7.85;5.80;;;;;;;;;;4210317;34;20440;-82
2023/06/09 15:11:05;;;;;;;13.45;6.37;;;;;;;;;;4209073;34;20473;-85
2023/06/09 15:13:31;;;;;;;12.77;6.37;;;;;;;;;;4208816;34;20063;-76
2023/06/09 15:15:57;;;;;;;11.65;6.35;;;;;;;;;;4229088;33;20072;-83
2023/06/09 15:18:24;;;;;;;13.30;6.50;;;;;;;;;;4247495;33;20080;-80
2023/06/09 15:20:50;;;;;;;11.30;5.87;;;;;;;;;;4249974;33;20066;-82
2023/06/09 15:23:16;;;;;;;12.13;5.97;;;;;;;;;;4249926;33;20054;-81
2023/06/09 15:25:44;;;;;;;14.10;5.93;;;;;;;;;;4252549;33;20428;-78
2023/06/09 15:28:14;;;;;;;6.32;5.30;;;;;;;;;;4252413;33;20099;-80
2023/06/09 15:30:42;;;;;;;9.93;5.40;;;;;;;;;;4243243;33;20539;-82
2023/06/09 15:33:10;;;;;;;9.07;5.68;;;;;;;;;;4251112;33;20080;-83
2023/06/09 15:35:37;;;;;;;6.20;5.62;;;;;;;;;;4238925;33;20046;-81
2023/06/09 15:38:04;;;;;;;10.63;5.85;;;;;;;;;;4237532;33;20069;-83
2023/06/09 15:40:32;;;;;;;9.13;5.47;;;;;;;;;;4244573;33;20839;-84
2023/06/09 15:42:58;;;;;;;7.07;6.03;;;;;;;;;;4247261;33;20073;-80
2023/06/09 15:45:26;;;;;;;12.18;6.87;;;;;;;;;;4221381;34;20149;-82
2023/06/09 15:47:52;;;;;;;13.70;6.65;;;;;;;;;;4216616;33;20076;-76
2023/06/09 15:50:18;;;;;;;6.97;6.20;;;;;;;;;;4236316;33;20069;-83
2023/06/09 15:52:45;;;;;;;7.18;6.47;;;;;;;;;;4232959;33;20051;-82
2023/06/09 15:55:17;;;;;;;8.93;6.15;;;;;;;;;;4237947;33;20051;-82
2023/06/09 15:57:43;;;;;;;9.43;5.93;;;;;;;;;;4227645;33;20084;-75
2023/06/09 16:00:10;;;;;;;11.12;6.70;;;;;;;;;;4223647;33;20374;-83
2023/06/09 16:02:38;;;;;;;7.00;6.30;;;;;;;;;;4222900;33;20125;-81
2023/06/09 16:05:04;;;;;;;11.12;5.18;;;;;;;;;;4223105;33;20088;-80
2023/06/09 16:07:30;;;;;;;11.23;6.62;;;;;;;;;;4240092;33;20072;-83
2023/06/09 16:09:56;;;;;;;5.62;5.10;;;;;;;;;;4238445;33;20066;-79
2023/06/09 16:12:23;;;;;;;10.68;5.65;;;;;;;;;;4231863;33;20405;-81
2023/06/09 16:14:49;;;;;;;7.93;5.82;;;;;;;;;;4220059;33;20059;-77
2023/06/09 16:17:16;;;;;;;12.18;5.30;;;;;;;;;;4226711;33;20055;-82
2023/06/09 16:19:42;;;;;;;5.55;5.05;;;;;;;;;;4235954;33;20046;-80
2023/06/09 16:22:08;;;;;;;12.85;6.10;;;;;;;;;;4235495;33;20074;-79
2023/06/09 16:24:38;;;;;;;6.43;5.30;;;;;;;;;;4239110;33;20110;-76
2023/06/09 16:27:08;;;;;;;8.73;5.10;;;;;;;;;;4236358;33;20079;-76
2023/06/09 16:29:36;;;;;;;8.48;5.20;;;;;;;;;;4193837;34;20027;-75
2023/06/09 16:32:02;;;;;;;5.47;4.87;;;;;;;;;;4194522;34;20067;-75
2023/06/09 16:34:29;;;;;;;9.40;5.35;;;;;;;;;;4178680;34;20062;-75
2023/06/09 16:36:55;;;;;;;4.95;4.40;;;;;;;;;;4180432;34;20095;-76
2023/06/09 16:39:21;;;;;;;9.25;5.20;;;;;;;;;;4180963;34;20371;-77
2023/06/09 16:41:47;;;;;;;11.10;4.80;;;;;;;;;;4172217;34;20064;-75
2023/06/09 16:44:13;;;;;;;7.43;4.65;;;;;;;;;;4178300;34;20127;-73
2023/06/09 16:46:40;;;;;;;5.65;4.50;;;;;;;;;;4169645;34;20412;-75